createdAt,value
2022-10-11T00:00:06.068Z,100184.83
2022-10-11T00:05:29.150Z,100178.00
2022-10-11T00:10:34.922Z,100182.55
2022-10-11T00:15:39.891Z,100176.14
2022-10-11T00:20:42.776Z,100178.84
2022-10-11T00:25:45.574Z,100172.42
2022-10-11T00:30:49.098Z,100172.07
2022-10-11T00:35:52.066Z,100175.11
2022-10-11T00:40:55.112Z,100177.20
2022-10-11T00:45:58.017Z,100174.38
2022-10-11T00:51:07.082Z,100171.89
2022-10-11T00:56:17.445Z,100176.67
2022-10-11T01:01:20.620Z,100172.51
2022-10-11T01:06:23.659Z,100164.40
2022-10-11T01:11:29.227Z,100165.77
2022-10-11T01:17:07.054Z,100161.23
2022-10-11T01:22:35.566Z,100165.28
2022-10-11T01:27:58.835Z,100164.02
2022-10-11T01:33:21.460Z,100158.77
2022-10-11T01:38:35.163Z,100160.90
2022-10-11T01:43:40.012Z,100155.46
2022-10-11T01:48:55.205Z,100152.48
2022-10-11T01:55:08.260Z,100143.48
2022-10-11T02:00:23.142Z,100143.34
2022-10-11T02:05:35.724Z,100144.08
2022-10-11T02:10:50.144Z,100137.35
2022-10-11T02:15:56.322Z,100141.46
2022-10-11T02:21:02.300Z,100144.19
2022-10-11T02:26:07.415Z,100147.59
2022-10-11T02:31:12.636Z,100145.73
2022-10-11T02:36:25.358Z,100154.73
2022-10-11T02:41:33.150Z,100158.80
2022-10-11T02:46:37.609Z,100157.65
2022-10-11T02:51:40.923Z,100159.44
2022-10-11T02:56:43.824Z,100162.83
2022-10-11T03:01:46.795Z,100163.29
2022-10-11T03:06:49.632Z,100169.19
2022-10-11T03:11:52.743Z,100178.09
2022-10-11T03:16:55.776Z,100181.65
2022-10-11T03:22:01.115Z,100188.05
2022-10-11T03:27:04.013Z,100184.85
2022-10-11T03:32:06.824Z,100184.65
2022-10-11T03:37:10.336Z,100190.23
2022-10-11T03:42:14.040Z,100192.38
2022-10-11T03:47:17.370Z,100200.89
2022-10-11T03:52:20.480Z,100198.98
2022-10-11T03:57:24.001Z,100197.79
2022-10-11T04:02:27.108Z,100201.42
2022-10-11T04:07:29.908Z,100205.61
2022-10-11T04:12:33.190Z,100212.27
2022-10-11T04:17:35.921Z,100213.92
2022-10-11T04:22:38.926Z,100219.70
2022-10-11T04:27:42.140Z,100224.39
2022-10-11T04:32:45.357Z,100234.01
2022-10-11T04:37:48.258Z,100241.06
2022-10-11T04:42:53.413Z,100242.95
2022-10-11T04:47:56.318Z,100243.25
2022-10-11T04:52:59.221Z,100250.23
2022-10-11T04:58:02.491Z,100256.36
2022-10-11T05:03:05.335Z,100262.31
2022-10-11T05:08:08.445Z,100267.46
2022-10-11T05:13:11.246Z,100280.63
2022-10-11T05:18:14.047Z,100289.67
2022-10-11T05:23:16.951Z,100296.89
2022-10-11T05:28:19.802Z,100303.13
2022-10-11T05:33:23.580Z,100305.28
2022-10-11T05:38:26.940Z,100310.15
2022-10-11T05:43:30.420Z,100319.39
2022-10-11T05:48:33.812Z,100325.88
2022-10-11T05:53:38.170Z,100333.55
2022-10-11T05:58:41.067Z,100343.59
2022-10-11T06:03:44.177Z,100347.85
2022-10-11T06:08:47.909Z,100353.11
2022-10-11T06:13:54.623Z,100355.55
2022-10-11T06:18:58.202Z,100364.75
2022-10-11T06:24:02.145Z,100381.14
2022-10-11T06:29:05.668Z,100391.46
2022-10-11T06:34:08.977Z,100401.91
2022-10-11T06:39:12.196Z,100408.76
2022-10-11T06:44:15.351Z,100420.41
2022-10-11T06:49:23.061Z,100425.98
2022-10-11T06:54:26.968Z,100434.17
2022-10-11T06:59:29.746Z,100438.14
2022-10-11T07:04:34.187Z,100444.98
2022-10-11T07:09:37.042Z,100458.60
2022-10-11T07:14:40.011Z,100469.23
2022-10-11T07:19:42.798Z,100473.61
2022-10-11T07:24:45.802Z,100486.84
2022-10-11T07:29:48.608Z,100495.74
2022-10-11T07:34:51.406Z,100496.88
2022-10-11T07:39:54.719Z,100509.04
2022-10-11T07:44:57.523Z,100513.08
2022-10-11T07:50:00.426Z,100520.91
2022-10-11T07:55:03.338Z,100531.74
2022-10-11T08:00:07.175Z,100535.41
2022-10-11T08:05:09.933Z,100546.07
2022-10-11T08:10:12.770Z,100551.90
2022-10-11T08:15:16.581Z,100555.77
2022-10-11T08:20:19.491Z,100561.16
2022-10-11T08:25:22.545Z,100567.78
2022-10-11T08:30:25.404Z,100570.28
2022-10-11T08:35:28.716Z,100570.30
2022-10-11T08:40:35.314Z,100579.02
2022-10-11T08:45:53.472Z,100581.88
2022-10-11T08:50:57.680Z,100585.41
2022-10-11T08:56:01.472Z,100598.17
2022-10-11T09:01:07.152Z,100605.77
2022-10-11T09:06:25.464Z,100617.84
2022-10-11T09:11:47.619Z,100620.91
2022-10-11T09:16:55.846Z,100628.27
2022-10-11T09:22:10.937Z,100634.92
2022-10-11T09:27:25.894Z,100641.55
2022-10-11T09:32:42.720Z,100641.73
2022-10-11T09:38:06.248Z,100638.83
2022-10-11T09:43:09.629Z,100643.29
2022-10-11T09:48:30.792Z,100653.15
2022-10-11T09:54:05.439Z,100652.65
2022-10-11T09:59:31.386Z,100662.70
2022-10-11T10:04:34.499Z,100666.02
2022-10-11T10:09:38.022Z,100668.29
2022-10-11T10:14:41.508Z,100670.58
2022-10-11T10:19:51.959Z,100677.00
2022-10-11T10:24:57.888Z,100678.20
2022-10-11T10:30:09.924Z,100681.30
2022-10-11T10:35:24.660Z,100686.90
2022-10-11T10:40:39.473Z,100686.85
2022-10-11T10:46:20.580Z,100691.40
2022-10-11T10:51:58.448Z,100698.20
2022-10-11T10:57:05.666Z,100700.02
2022-10-11T11:07:50.629Z,100704.41
2022-10-11T11:13:14.730Z,100700.02
2022-10-11T11:18:36.583Z,100705.14
2022-10-11T11:23:48.492Z,100708.60
2022-10-11T11:29:00.821Z,100711.39
2022-10-11T11:34:19.185Z,100714.00
2022-10-11T11:39:39.918Z,100716.70
2022-10-11T11:44:51.021Z,100718.95
2022-10-11T11:50:19.608Z,100717.21
2022-10-11T11:55:42.281Z,100711.38
2022-10-11T12:01:03.935Z,100719.06
2022-10-11T12:06:24.105Z,100716.58
2022-10-11T12:11:34.641Z,100723.48
2022-10-11T12:17:09.059Z,100723.67
2022-10-11T12:22:36.892Z,100719.75
2022-10-11T12:27:46.406Z,100717.40
2022-10-11T12:32:51.405Z,100717.94
2022-10-11T12:38:14.648Z,100719.12
2022-10-11T12:43:55.741Z,100719.84
2022-10-11T12:49:04.274Z,100720.71
2022-10-11T12:54:28.998Z,100725.56
2022-10-11T12:59:39.168Z,100723.52
2022-10-11T13:04:42.177Z,100728.48
2022-10-11T13:09:48.984Z,100733.34
2022-10-11T13:15:04.579Z,100740.21
2022-10-11T13:20:17.880Z,100751.59
2022-10-11T13:25:28.113Z,100765.85
2022-10-11T13:30:34.529Z,100763.35
2022-10-11T13:35:38.873Z,100761.36
2022-10-11T13:40:42.273Z,100759.73
2022-10-11T13:45:45.250Z,100758.33
2022-10-11T13:51:08.626Z,100758.25
2022-10-11T13:56:12.762Z,100757.38
2022-10-11T14:01:21.186Z,100765.57
2022-10-11T14:06:25.679Z,100760.10
2022-10-11T14:11:35.099Z,100762.65
2022-10-11T14:16:38.354Z,100764.16
2022-10-11T14:21:47.254Z,100771.36
2022-10-11T14:26:53.226Z,100770.65
2022-10-11T14:32:03.917Z,100774.25
2022-10-11T14:37:06.946Z,100773.52
2022-10-11T14:42:12.483Z,100774.65
2022-10-11T14:47:17.030Z,100776.72
2022-10-11T14:52:19.831Z,100780.33
2022-10-11T14:57:22.737Z,100784.95
2022-10-11T15:02:25.538Z,100789.13
2022-10-11T15:07:28.957Z,100801.79
2022-10-11T15:12:32.061Z,100807.36
2022-10-11T15:17:34.982Z,100812.95
2022-10-11T15:22:37.769Z,100817.59
2022-10-11T15:27:42.515Z,100819.81
2022-10-11T15:32:46.043Z,100821.85
2022-10-11T15:37:52.936Z,100822.98
2022-10-11T15:42:56.046Z,100832.20
2022-10-11T15:47:59.839Z,100839.08
2022-10-11T15:53:08.199Z,100838.77
2022-10-11T15:58:24.722Z,100846.35
2022-10-11T16:03:30.086Z,100853.05
2022-10-11T16:08:34.523Z,100860.58
2022-10-11T16:13:37.734Z,100859.48
2022-10-11T16:18:40.946Z,100866.27
2022-10-11T16:23:43.877Z,100876.21
2022-10-11T16:28:48.285Z,100877.80
2022-10-11T16:33:53.142Z,100880.98
2022-10-11T16:38:55.945Z,100878.91
2022-10-11T16:43:58.786Z,100883.44
2022-10-11T16:49:01.857Z,100883.39
2022-10-11T16:54:04.882Z,100883.20
2022-10-11T16:59:08.493Z,100882.86
2022-10-11T17:04:11.693Z,100880.88
2022-10-11T17:09:14.841Z,100881.45
2022-10-11T17:14:18.320Z,100891.08
2022-10-11T17:19:21.120Z,100892.50
2022-10-11T17:24:24.640Z,100898.89
2022-10-11T17:29:27.448Z,100900.70
2022-10-11T17:34:30.238Z,100900.77
2022-10-11T17:39:33.155Z,100900.42
2022-10-11T17:44:36.563Z,100896.88
2022-10-11T17:49:39.469Z,100900.16
2022-10-11T17:54:42.270Z,100898.89
2022-10-11T17:59:45.217Z,100898.14
2022-10-11T18:04:48.183Z,100902.76
2022-10-11T18:09:51.053Z,100902.44
2022-10-11T18:14:53.988Z,100904.25
2022-10-11T18:19:56.792Z,100913.27
2022-10-11T18:24:59.693Z,100916.13
2022-10-11T18:30:02.608Z,100915.30
2022-10-11T18:35:06.411Z,100919.75
2022-10-11T18:40:10.226Z,100919.70
2022-10-11T18:45:13.051Z,100919.88
2022-10-11T18:50:15.954Z,100924.27
2022-10-11T18:55:19.709Z,100931.70
2022-10-11T19:00:40.174Z,100932.04
2022-10-11T19:05:43.920Z,100934.30
2022-10-11T19:10:46.720Z,100936.46
2022-10-11T19:15:49.481Z,100936.45
2022-10-11T19:20:53.118Z,100938.86
2022-10-11T19:25:58.709Z,100935.07
2022-10-11T19:31:07.804Z,100935.01
2022-10-11T19:36:14.138Z,100936.45
2022-10-11T19:41:19.403Z,100940.09
2022-10-11T19:46:44.376Z,100942.73
2022-10-11T19:51:45.692Z,100944.52
2022-10-11T19:56:49.010Z,100947.90
2022-10-11T20:01:53.329Z,100949.91
2022-10-11T20:06:56.670Z,100949.63
2022-10-11T20:11:59.562Z,100953.59
2022-10-11T20:17:02.472Z,100959.57
2022-10-11T20:22:05.207Z,100960.80
2022-10-11T20:27:08.068Z,100960.20
2022-10-11T20:32:11.223Z,100957.05
2022-10-11T20:37:14.082Z,100959.30
2022-10-11T20:42:16.885Z,100958.65
2022-10-11T20:47:19.693Z,100961.70
2022-10-11T20:52:22.692Z,100959.91
2022-10-11T20:57:25.497Z,100957.98
2022-10-11T21:02:28.807Z,100964.08
2022-10-11T21:07:32.162Z,100965.95
2022-10-11T21:12:35.729Z,100963.67
2022-10-11T21:17:39.362Z,100960.05
2022-10-11T21:22:42.168Z,100958.14
2022-10-11T21:27:44.972Z,100958.92
2022-10-11T21:32:47.975Z,100962.14
2022-10-11T21:37:50.980Z,100959.80
2022-10-11T21:42:53.800Z,100964.36
2022-10-11T21:47:57.401Z,100965.76
2022-10-11T21:53:00.927Z,100967.02
2022-10-11T21:58:03.722Z,100971.92
2022-10-11T22:03:06.526Z,100974.67
2022-10-11T22:08:09.332Z,100974.12
2022-10-11T22:13:12.335Z,100973.14
2022-10-11T22:18:15.733Z,100977.77
2022-10-11T22:23:19.474Z,100975.86
2022-10-11T22:28:22.431Z,100976.39
2022-10-11T22:33:25.491Z,100975.73
2022-10-11T22:38:28.908Z,100977.34
2022-10-11T22:43:32.426Z,100974.14
2022-10-11T22:48:35.943Z,100976.94
2022-10-11T22:53:39.055Z,100977.10
2022-10-11T22:58:41.952Z,100978.21
2022-10-11T23:03:49.441Z,100976.23
2022-10-11T23:08:52.474Z,100983.28
2022-10-11T23:13:55.274Z,100984.16
2022-10-11T23:18:58.175Z,100983.52
2022-10-11T23:24:01.186Z,100985.44
2022-10-11T23:29:04.030Z,100988.84
2022-10-11T23:34:06.787Z,100987.54
2022-10-11T23:39:11.151Z,100985.83
2022-10-11T23:44:14.130Z,100987.92
2022-10-11T23:49:16.936Z,100991.36
2022-10-11T23:54:19.735Z,100991.65
2022-10-11T23:59:22.537Z,100995.27
